Time;durP1;ratioP1;P1;durP2;ratioP2;P2;SDS_P1;SDS_P2;PMS_P1;PMS_P2;Temp;Humidity;BMP_temperature;BMP_pressure;BME280_temperature;BME280_humidity;BME280_pressure;Samples;Min_cycle;Max_cycle;Signal;HPM_P1;HPM_P2
2023/03/15 00:00:41;;;;;;;1.10;0.70;;;5.90;99.90;;;;;;4983226;28;20028;-88
2023/03/15 00:03:07;;;;;;;1.87;0.70;;;5.80;99.90;;;;;;5009820;28;20272;-89
2023/03/15 00:05:34;;;;;;;2.08;1.15;;;5.80;99.90;;;;;;4978275;28;20418;-88
2023/03/15 00:08:00;;;;;;;1.05;0.60;;;5.80;99.90;;;;;;4995747;28;20307;-86
2023/03/15 00:10:26;;;;;;;1.50;0.70;;;5.80;99.90;;;;;;5006393;28;20562;-87
2023/03/15 00:12:52;;;;;;;1.30;0.80;;;5.80;99.90;;;;;;4989307;28;20037;-88
2023/03/15 00:15:18;;;;;;;0.85;0.60;;;5.80;99.90;;;;;;4999146;28;20025;-87
2023/03/15 00:17:44;;;;;;;1.00;0.60;;;5.80;99.90;;;;;;4996042;28;20482;-87
2023/03/15 00:20:11;;;;;;;0.90;0.70;;;5.80;99.90;;;;;;4970034;28;20030;-87
2023/03/15 00:22:37;;;;;;;0.80;0.65;;;5.80;99.90;;;;;;5016050;28;20595;-88
2023/03/15 00:25:03;;;;;;;1.23;0.70;;;5.80;99.90;;;;;;4974959;28;20294;-86
2023/03/15 00:27:28;;;;;;;0.90;0.60;;;5.80;99.90;;;;;;4991376;28;20050;-86
2023/03/15 00:29:54;;;;;;;1.43;0.67;;;5.80;99.90;;;;;;4991242;28;20609;-88
2023/03/15 00:32:20;;;;;;;0.77;0.50;;;5.80;99.90;;;;;;5028575;28;20329;-88
2023/03/15 00:34:47;;;;;;;2.17;0.90;;;5.70;99.90;;;;;;4982679;28;20045;-87
2023/03/15 00:37:15;;;;;;;1.27;0.85;;;5.70;99.90;;;;;;4971416;28;20117;-86
2023/03/15 00:39:44;;;;;;;0.70;0.50;;;5.70;99.90;;;;;;4987330;28;20038;-88
2023/03/15 00:42:10;;;;;;;1.20;0.70;;;5.70;99.90;;;;;;5010402;28;20740;-86
2023/03/15 00:44:36;;;;;;;1.00;0.60;;;5.70;99.90;;;;;;4980722;28;20068;-88
2023/03/15 00:47:02;;;;;;;2.25;0.88;;;5.70;99.90;;;;;;4976664;28;20416;-86
2023/03/15 00:49:28;;;;;;;1.70;0.90;;;5.70;99.90;;;;;;5004491;28;20037;-87
2023/03/15 00:51:54;;;;;;;1.50;0.70;;;5.80;99.90;;;;;;4970001;28;20099;-88
2023/03/15 00:54:22;;;;;;;1.70;0.77;;;5.80;99.90;;;;;;4981116;28;20037;-88
2023/03/15 00:56:48;;;;;;;3.05;0.80;;;5.70;99.90;;;;;;4969192;28;20095;-90
2023/03/15 00:59:14;;;;;;;0.87;0.70;;;5.70;99.90;;;;;;4990203;28;20038;-86
2023/03/15 01:01:43;;;;;;;1.70;0.90;;;5.70;99.90;;;;;;4995273;28;20033;-88
2023/03/15 01:04:10;;;;;;;2.05;1.20;;;5.70;99.90;;;;;;4985634;28;20050;-87
2023/03/15 01:06:37;;;;;;;1.60;0.90;;;5.70;99.90;;;;;;5010221;28;20017;-87
2023/03/15 01:09:04;;;;;;;1.92;1.10;;;5.60;99.90;;;;;;4972139;28;20575;-88
2023/03/15 01:11:30;;;;;;;3.33;1.47;;;5.60;99.90;;;;;;5007808;28;20033;-87
2023/03/15 01:13:57;;;;;;;1.73;1.10;;;5.60;99.90;;;;;;4985756;28;20442;-88
2023/03/15 01:16:24;;;;;;;2.42;1.30;;;5.60;99.90;;;;;;4979532;28;20193;-88
2023/03/15 01:18:52;;;;;;;3.40;1.95;;;5.60;99.90;;;;;;5020119;28;20129;-87
2023/03/15 01:21:19;;;;;;;4.10;2.05;;;5.60;99.90;;;;;;4978783;28;20018;-86
2023/03/15 01:23:45;;;;;;;3.97;2.20;;;5.60;99.90;;;;;;4989093;28;20026;-87
2023/03/15 01:26:13;;;;;;;3.45;1.85;;;5.60;99.90;;;;;;4982190;28;20152;-85
2023/03/15 01:28:39;;;;;;;5.25;2.40;;;5.60;99.90;;;;;;4974879;28;20024;-87
2023/03/15 01:31:05;;;;;;;4.07;2.05;;;5.60;99.90;;;;;;5008736;28;20029;-86
2023/03/15 01:33:31;;;;;;;3.53;1.90;;;5.60;99.90;;;;;;4988676;28;20025;-86
2023/03/15 01:36:05;;;;;;;3.03;1.63;;;5.60;99.90;;;;;;4985330;28;20064;-85
2023/03/15 01:38:32;;;;;;;4.40;1.92;;;5.60;99.90;;;;;;4994223;28;20083;-86
2023/03/15 01:40:58;;;;;;;3.65;2.08;;;5.60;99.90;;;;;;4995663;28;20052;-85
2023/03/15 01:43:26;;;;;;;3.88;2.13;;;5.60;99.90;;;;;;4980167;28;20112;-87
2023/03/15 01:46:06;;;;;;;3.08;1.70;;;5.60;99.90;;;;;;4982359;28;20426;-87
2023/03/15 01:48:38;;;;;;;3.77;1.63;;;5.60;99.90;;;;;;4998628;28;20137;-86
2023/03/15 01:51:16;;;;;;;3.42;2.00;;;5.70;99.90;;;;;;4981775;28;22292;-87
2023/03/15 01:53:46;;;;;;;4.32;2.00;;;5.60;99.90;;;;;;4993056;28;20058;-88
2023/03/15 01:56:13;;;;;;;3.85;1.70;;;5.60;99.90;;;;;;5025694;28;20041;-86
2023/03/15 01:58:41;;;;;;;3.17;1.55;;;5.60;99.90;;;;;;5010444;28;20029;-88
2023/03/15 02:01:08;;;;;;;3.40;1.80;;;5.60;99.90;;;;;;4977484;28;20166;-87
2023/03/15 02:03:38;;;;;;;3.08;1.90;;;5.60;99.90;;;;;;5016307;28;20029;-87
2023/03/15 02:06:08;;;;;;;3.13;1.85;;;5.60;99.90;;;;;;4987271;28;20026;-86
2023/03/15 02:08:40;;;;;;;3.20;1.98;;;5.60;99.90;;;;;;5000757;28;20029;-86
2023/03/15 02:11:06;;;;;;;3.88;2.10;;;5.60;99.90;;;;;;5011878;28;20248;-86
2023/03/15 02:13:34;;;;;;;3.70;1.90;;;5.60;99.90;;;;;;5021418;28;20061;-86
2023/03/15 02:16:00;;;;;;;4.38;1.92;;;5.60;99.90;;;;;;4975137;28;20260;-86
2023/03/15 02:18:26;;;;;;;3.13;1.75;;;5.60;99.90;;;;;;4982446;28;20116;-86
2023/03/15 02:21:13;;;;;;;3.93;1.83;;;5.60;99.90;;;;;;4996456;28;20036;-88
2023/03/15 02:23:40;;;;;;;2.58;1.52;;;5.60;99.90;;;;;;4973321;28;20038;-88
2023/03/15 02:26:43;;;;;;;3.47;1.90;;;5.60;99.90;;;;;;5011637;28;20018;-87
2023/03/15 02:29:09;;;;;;;3.35;1.80;;;5.60;99.90;;;;;;4986489;28;20724;-86
2023/03/15 02:31:36;;;;;;;5.70;2.33;;;5.60;99.90;;;;;;4973740;28;20030;-88
2023/03/15 02:34:04;;;;;;;4.93;2.23;;;5.70;99.90;;;;;;5013481;28;20519;-87
2023/03/15 02:36:30;;;;;;;3.20;1.90;;;5.70;99.90;;;;;;4999758;28;20035;-87
2023/03/15 02:38:56;;;;;;;3.78;2.00;;;5.60;99.90;;;;;;5007406;28;20033;-87
2023/03/15 02:41:34;;;;;;;3.05;2.08;;;5.60;99.90;;;;;;4995017;28;20106;-88
2023/03/15 02:44:10;;;;;;;4.03;2.10;;;5.70;99.90;;;;;;4991004;28;20454;-88
2023/03/15 02:46:36;;;;;;;2.30;1.50;;;5.70;99.90;;;;;;4958151;28;20025;-88
2023/03/15 02:49:03;;;;;;;2.88;1.58;;;5.70;99.90;;;;;;4998088;28;20678;-88
2023/03/15 02:51:32;;;;;;;3.67;1.77;;;5.70;99.90;;;;;;5016048;28;20442;-88
2023/03/15 02:53:57;;;;;;;3.53;1.90;;;5.70;99.90;;;;;;5008174;28;20061;-88
2023/03/15 02:56:23;;;;;;;3.67;1.87;;;5.70;99.90;;;;;;4992595;28;20121;-86
2023/03/15 02:58:49;;;;;;;4.05;2.20;;;5.70;99.90;;;;;;5013967;28;20029;-88
2023/03/15 03:01:17;;;;;;;3.87;2.13;;;5.70;99.90;;;;;;4981855;28;20021;-86
2023/03/15 03:03:44;;;;;;;3.87;2.10;;;5.60;99.90;;;;;;5010296;28;20318;-88
2023/03/15 03:06:13;;;;;;;3.92;2.00;;;5.60;99.90;;;;;;4998670;28;20033;-88
2023/03/15 03:08:39;;;;;;;3.38;1.75;;;5.60;99.90;;;;;;4977472;28;20013;-88
2023/03/15 03:11:05;;;;;;;4.85;1.90;;;5.60;99.90;;;;;;4994275;28;20049;-88
2023/03/15 03:13:31;;;;;;;3.47;2.00;;;5.70;99.90;;;;;;5019826;28;20037;-89
2023/03/15 03:15:59;;;;;;;3.03;1.73;;;5.60;99.90;;;;;;4975882;28;20623;-89
2023/03/15 03:18:27;;;;;;;4.60;1.92;;;5.70;99.90;;;;;;4978395;28;20561;-89
2023/03/15 03:20:58;;;;;;;3.10;1.80;;;5.70;99.90;;;;;;4998349;28;20120;-89
2023/03/15 03:23:25;;;;;;;3.47;1.90;;;5.70;99.90;;;;;;4986272;28;20060;-88
2023/03/15 03:25:55;;;;;;;3.20;1.70;;;5.70;99.90;;;;;;4991887;28;20041;-89
2023/03/15 03:28:23;;;;;;;2.65;1.50;;;5.70;99.90;;;;;;5001624;28;20045;-88
2023/03/15 03:30:49;;;;;;;2.35;1.50;;;5.80;99.90;;;;;;4970296;28;20367;-89
2023/03/15 03:33:15;;;;;;;3.97;2.10;;;5.70;99.90;;;;;;4996246;28;20039;-89
2023/03/15 03:35:41;;;;;;;3.60;1.70;;;5.70;99.90;;;;;;4978126;28;20452;-89
2023/03/15 03:38:07;;;;;;;2.75;1.60;;;5.70;99.90;;;;;;5015903;28;20258;-88
2023/03/15 03:40:33;;;;;;;4.68;1.80;;;5.80;99.90;;;;;;4976504;28;20026;-87
2023/03/15 03:42:59;;;;;;;3.70;1.90;;;5.80;99.90;;;;;;4990237;28;20036;-88
2023/03/15 03:45:25;;;;;;;3.30;1.73;;;5.80;99.90;;;;;;4986890;28;20467;-88
2023/03/15 03:47:50;;;;;;;4.22;1.85;;;5.80;99.90;;;;;;4977985;28;20031;-89
2023/03/15 03:50:16;;;;;;;3.93;2.17;;;5.80;99.90;;;;;;4972404;28;20021;-88
2023/03/15 03:52:44;;;;;;;4.95;2.30;;;5.80;99.90;;;;;;4998942;28;20032;-89
2023/03/15 03:55:12;;;;;;;4.67;2.40;;;5.80;99.90;;;;;;4985041;28;20033;-89
2023/03/15 03:57:39;;;;;;;5.18;2.15;;;5.90;99.90;;;;;;4969839;28;20072;-89
2023/03/15 04:00:05;;;;;;;4.82;2.40;;;5.90;99.90;;;;;;4998492;28;20048;-87
2023/03/15 04:02:32;;;;;;;5.13;2.30;;;5.90;99.90;;;;;;4966848;28;20558;-87
2023/03/15 04:04:58;;;;;;;4.68;2.47;;;5.90;99.90;;;;;;4974109;28;20602;-88
2023/03/15 04:07:24;;;;;;;4.70;2.30;;;5.90;99.90;;;;;;4987007;28;20017;-89
2023/03/15 04:09:49;;;;;;;4.00;2.33;;;5.90;99.90;;;;;;5003805;28;20506;-89
2023/03/15 04:12:15;;;;;;;4.40;2.30;;;5.80;99.90;;;;;;4992161;28;20051;-89
2023/03/15 04:14:41;;;;;;;4.47;2.55;;;5.80;99.90;;;;;;4983522;28;20140;-90
2023/03/15 04:17:07;;;;;;;5.87;2.70;;;5.80;99.90;;;;;;5013813;28;20672;-88
2023/03/15 04:19:33;;;;;;;5.70;2.22;;;5.80;99.90;;;;;;4965212;28;20116;-89
2023/03/15 04:22:05;;;;;;;4.15;2.30;;;5.80;99.90;;;;;;4975263;28;20139;-87
2023/03/15 04:24:32;;;;;;;3.90;2.33;;;5.80;99.90;;;;;;4998811;28;20029;-88
2023/03/15 04:26:58;;;;;;;3.70;2.10;;;5.80;99.90;;;;;;4994581;28;20076;-88
2023/03/15 04:29:24;;;;;;;5.10;2.50;;;5.80;99.90;;;;;;4992777;28;20627;-90
2023/03/15 04:31:49;;;;;;;3.92;2.35;;;5.80;99.90;;;;;;4978701;28;20044;-89
2023/03/15 04:34:15;;;;;;;4.93;2.63;;;5.80;99.90;;;;;;4956724;28;20371;-89
2023/03/15 04:36:41;;;;;;;5.93;2.43;;;5.90;99.90;;;;;;4991626;28;20034;-89
2023/03/15 04:39:08;;;;;;;4.07;2.20;;;5.90;99.90;;;;;;4997239;28;20061;-88
2023/03/15 04:41:34;;;;;;;4.80;2.53;;;5.90;99.90;;;;;;4998998;28;20033;-88
2023/03/15 04:44:02;;;;;;;3.53;2.03;;;5.90;99.90;;;;;;5008520;28;20615;-88
2023/03/15 04:46:29;;;;;;;5.28;2.50;;;5.90;99.90;;;;;;4989477;28;20385;-89
2023/03/15 04:48:55;;;;;;;4.50;2.10;;;5.90;99.90;;;;;;4972237;28;20302;-89
2023/03/15 04:51:20;;;;;;;6.47;2.75;;;5.80;99.90;;;;;;4999226;28;20397;-89
2023/03/15 04:53:46;;;;;;;4.13;2.20;;;5.80;99.90;;;;;;4975912;28;20021;-90
2023/03/15 04:56:12;;;;;;;3.70;2.15;;;5.70;99.90;;;;;;4997559;28;20288;-88
2023/03/15 04:58:38;;;;;;;3.90;2.27;;;5.70;99.90;;;;;;4995909;28;20036;-88
2023/03/15 05:01:03;;;;;;;4.85;2.30;;;5.60;99.90;;;;;;5007407;28;20306;-87
2023/03/15 05:03:30;;;;;;;5.20;2.43;;;5.50;99.90;;;;;;4997352;28;20163;-89
2023/03/15 05:05:55;;;;;;;4.63;2.47;;;5.50;99.90;;;;;;4972560;28;20334;-86
2023/03/15 05:08:21;;;;;;;4.53;2.50;;;5.40;99.90;;;;;;4991510;28;20020;-89
2023/03/15 05:10:47;;;;;;;4.87;2.57;;;5.40;99.90;;;;;;4993701;28;20368;-89
2023/03/15 05:13:12;;;;;;;5.57;2.45;;;5.40;99.90;;;;;;4988555;28;20249;-87
2023/03/15 05:15:38;;;;;;;4.97;2.30;;;5.30;99.90;;;;;;4993116;28;20079;-89
2023/03/15 05:18:04;;;;;;;4.55;2.10;;;5.20;99.90;;;;;;4997234;28;20704;-89
2023/03/15 05:20:30;;;;;;;4.17;2.20;;;5.10;99.90;;;;;;4979750;28;20090;-88
2023/03/15 05:22:57;;;;;;;4.35;2.30;;;5.10;99.90;;;;;;5002306;28;20231;-90
2023/03/15 05:25:23;;;;;;;3.65;1.95;;;5.00;99.90;;;;;;4997856;28;20049;-88
2023/03/15 05:27:49;;;;;;;3.97;2.07;;;4.90;99.90;;;;;;5010075;28;20061;-88
2023/03/15 05:30:15;;;;;;;4.22;1.98;;;4.90;99.90;;;;;;4991440;28;20541;-88
2023/03/15 05:32:43;;;;;;;3.88;2.13;;;4.80;99.90;;;;;;4977472;28;20127;-89
2023/03/15 05:35:10;;;;;;;3.97;2.15;;;4.80;99.90;;;;;;4979879;28;20212;-88
2023/03/15 05:37:35;;;;;;;4.47;2.07;;;4.80;99.90;;;;;;4983881;28;20168;-89
2023/03/15 05:40:03;;;;;;;4.28;2.20;;;4.70;99.90;;;;;;4988067;28;20247;-90
2023/03/15 05:42:29;;;;;;;3.05;1.75;;;4.60;99.90;;;;;;4981776;28;20026;-91
2023/03/15 05:44:56;;;;;;;3.63;1.92;;;4.60;99.90;;;;;;4982953;28;20082;-88
2023/03/15 05:47:22;;;;;;;3.70;2.20;;;4.50;99.90;;;;;;4981934;28;20030;-88
2023/03/15 05:49:48;;;;;;;3.85;1.95;;;4.50;99.90;;;;;;4985175;28;20593;-89
2023/03/15 05:52:15;;;;;;;3.63;1.73;;;4.50;99.90;;;;;;4981445;28;20021;-89
2023/03/15 05:54:40;;;;;;;3.38;2.03;;;4.40;99.90;;;;;;5002242;28;20489;-89
2023/03/15 05:57:06;;;;;;;3.60;1.93;;;4.40;99.90;;;;;;4980077;28;20034;-90
2023/03/15 05:59:32;;;;;;;3.17;1.75;;;4.30;99.90;;;;;;5021790;28;20025;-89
2023/03/15 06:01:58;;;;;;;3.70;2.03;;;4.30;99.90;;;;;;4987024;28;20032;-90
2023/03/15 06:04:24;;;;;;;4.60;2.28;;;4.20;99.90;;;;;;4999488;28;20017;-91
2023/03/15 06:06:51;;;;;;;4.07;1.90;;;4.20;99.90;;;;;;4979103;28;20128;-91
2023/03/15 06:09:16;;;;;;;4.80;2.40;;;4.20;99.90;;;;;;4985093;28;20025;-88
2023/03/15 06:11:42;;;;;;;5.17;2.47;;;4.20;99.90;;;;;;4981133;28;20077;-91
2023/03/15 06:14:07;;;;;;;4.73;2.40;;;4.20;99.90;;;;;;5004208;28;20032;-89
2023/03/15 06:16:33;;;;;;;4.68;2.17;;;4.20;99.90;;;;;;5018930;28;20185;-89
2023/03/15 06:18:59;;;;;;;5.27;2.17;;;4.10;99.90;;;;;;4997277;28;20502;-90
2023/03/15 06:21:24;;;;;;;4.65;2.10;;;4.10;99.90;;;;;;4998396;28;20025;-89
2023/03/15 06:23:50;;;;;;;4.40;2.10;;;4.10;99.90;;;;;;4998007;28;20036;-90
2023/03/15 06:26:18;;;;;;;7.38;2.40;;;4.20;99.90;;;;;;4996854;28;20048;-90
2023/03/15 06:28:44;;;;;;;4.23;1.97;;;4.10;99.90;;;;;;5006337;28;20029;-90
2023/03/15 06:31:12;;;;;;;4.53;2.25;;;4.10;99.90;;;;;;5021419;28;20034;-89
2023/03/15 06:33:38;;;;;;;5.35;2.20;;;4.20;99.90;;;;;;4997908;28;20178;-89
2023/03/15 06:36:05;;;;;;;4.38;2.10;;;4.20;99.90;;;;;;5021383;28;20175;-89
2023/03/15 06:38:32;;;;;;;3.63;2.10;;;4.20;99.90;;;;;;4969086;28;20214;-90
2023/03/15 06:41:01;;;;;;;4.20;1.80;;;4.20;99.90;;;;;;5022702;28;20025;-89
2023/03/15 06:43:27;;;;;;;4.25;2.10;;;4.20;99.90;;;;;;4996804;28;20031;-89
2023/03/15 06:45:54;;;;;;;4.15;1.98;;;4.20;99.90;;;;;;4987458;28;20260;-90
2023/03/15 06:48:20;;;;;;;3.80;1.92;;;4.20;99.90;;;;;;4995083;28;20394;-89
2023/03/15 06:50:46;;;;;;;3.35;1.75;;;4.30;99.90;;;;;;4986755;28;20242;-90
2023/03/15 06:53:12;;;;;;;4.27;2.27;;;4.30;99.90;;;;;;4966368;28;20475;-90
2023/03/15 06:55:37;;;;;;;4.30;2.10;;;4.40;99.90;;;;;;5018362;28;20060;-89
2023/03/15 06:58:03;;;;;;;3.70;2.03;;;4.50;99.90;;;;;;4995365;28;20190;-89
2023/03/15 07:00:29;;;;;;;4.65;2.00;;;4.60;99.90;;;;;;5000614;28;20021;-89
2023/03/15 07:02:54;;;;;;;3.73;2.10;;;4.70;99.90;;;;;;4992257;28;20243;-89
2023/03/15 07:05:20;;;;;;;3.73;2.00;;;4.80;99.90;;;;;;4981687;28;20060;-90
2023/03/15 07:07:46;;;;;;;4.47;2.40;;;4.90;99.90;;;;;;4970766;28;21307;-90
2023/03/15 07:10:11;;;;;;;4.40;2.53;;;5.00;99.90;;;;;;5003803;28;20030;-89
2023/03/15 07:12:37;;;;;;;4.80;2.50;;;5.10;99.90;;;;;;4988269;28;20038;-90
2023/03/15 07:15:03;;;;;;;5.33;2.63;;;5.20;99.90;;;;;;5019229;28;20021;-91
2023/03/15 07:17:29;;;;;;;4.88;2.30;;;5.30;99.90;;;;;;5000371;28;20044;-91
2023/03/15 07:19:55;;;;;;;5.18;2.70;;;5.50;99.90;;;;;;4996318;28;20370;-91
2023/03/15 07:22:21;;;;;;;5.73;2.63;;;5.60;99.90;;;;;;4988064;28;20017;-90
2023/03/15 07:24:47;;;;;;;4.65;2.50;;;5.80;99.90;;;;;;4980149;28;20045;-90
2023/03/15 07:27:13;;;;;;;5.47;2.58;;;5.90;99.90;;;;;;4980596;28;20060;-90
2023/03/15 07:29:40;;;;;;;5.20;2.47;;;6.10;99.90;;;;;;4998722;28;20033;-90
2023/03/15 07:32:06;;;;;;;5.68;2.85;;;6.40;99.90;;;;;;4981716;28;20034;-90
2023/03/15 07:34:32;;;;;;;5.03;2.60;;;6.50;99.90;;;;;;4990874;28;20597;-90
2023/03/15 07:36:57;;;;;;;4.45;2.70;;;6.80;99.90;;;;;;4977942;28;20171;-90
2023/03/15 07:39:25;;;;;;;4.70;2.53;;;6.90;99.90;;;;;;4998508;28;20518;-90
2023/03/15 07:41:51;;;;;;;4.70;2.67;;;7.00;99.90;;;;;;4974376;28;20017;-92
2023/03/15 07:44:17;;;;;;;4.53;2.80;;;7.20;99.90;;;;;;4988429;28;20406;-90
2023/03/15 07:46:43;;;;;;;5.53;2.83;;;7.40;99.90;;;;;;4987179;28;20049;-91
2023/03/15 07:49:09;;;;;;;4.45;2.40;;;7.40;99.90;;;;;;4993035;28;20021;-91
2023/03/15 07:51:35;;;;;;;5.60;3.00;;;7.40;99.90;;;;;;4980882;28;20036;-91
2023/03/15 07:54:00;;;;;;;4.57;2.77;;;7.40;99.90;;;;;;5000418;28;20248;-90
2023/03/15 07:56:26;;;;;;;5.07;3.10;;;7.60;99.90;;;;;;4980425;28;20037;-89
2023/03/15 07:58:52;;;;;;;5.03;2.70;;;7.90;99.90;;;;;;4993251;28;20025;-89
2023/03/15 08:01:17;;;;;;;4.10;2.40;;;8.30;99.90;;;;;;4982822;28;20021;-91
2023/03/15 08:03:43;;;;;;;4.28;2.45;;;8.70;99.90;;;;;;4994567;28;20087;-90
2023/03/15 08:06:08;;;;;;;4.13;2.23;;;9.20;99.90;;;;;;4992646;28;20022;-90
2023/03/15 08:08:34;;;;;;;3.65;2.33;;;9.70;99.90;;;;;;4995053;28;20029;-92
2023/03/15 08:11:00;;;;;;;3.80;2.30;;;10.10;99.90;;;;;;4994750;28;20037;-91
2023/03/15 08:13:26;;;;;;;3.60;2.55;;;10.40;99.90;;;;;;5016826;28;20021;-90
2023/03/15 08:15:51;;;;;;;4.47;2.37;;;10.60;99.90;;;;;;4990762;28;20228;-91
2023/03/15 08:18:17;;;;;;;3.90;2.53;;;10.70;99.90;;;;;;5000811;28;20548;-91
2023/03/15 08:20:42;;;;;;;3.83;2.17;;;10.80;99.90;;;;;;4974210;28;20547;-90
2023/03/15 08:23:08;;;;;;;3.93;2.57;;;11.00;99.90;;;;;;4979505;28;20048;-91
2023/03/15 08:25:35;;;;;;;4.75;2.35;;;11.30;99.90;;;;;;4998944;28;20022;-91
2023/03/15 08:28:01;;;;;;;3.50;2.40;;;11.70;99.90;;;;;;5013683;28;20239;-92
2023/03/15 08:30:27;;;;;;;4.40;2.23;;;12.20;99.90;;;;;;4982359;28;20029;-91
2023/03/15 08:32:52;;;;;;;3.20;2.10;;;12.60;99.90;;;;;;4996347;28;20041;-91
2023/03/15 08:35:20;;;;;;;3.90;2.17;;;13.10;99.90;;;;;;5000012;28;20403;-91
2023/03/15 08:37:46;;;;;;;3.55;2.40;;;13.60;99.90;;;;;;4974239;28;20030;-91
2023/03/15 08:40:13;;;;;;;3.33;1.95;;;14.00;99.90;;;;;;4991670;28;20029;-90
2023/03/15 08:42:39;;;;;;;3.97;2.13;;;14.40;99.90;;;;;;4969897;28;20116;-92
2023/03/15 08:45:06;;;;;;;3.10;2.30;;;14.80;99.90;;;;;;4995431;28;20021;-91
2023/03/15 08:47:35;;;;;;;4.43;2.00;;;15.30;99.90;;;;;;5016937;28;20592;-91
2023/03/15 08:50:04;;;;;;;2.92;2.08;;;15.70;99.90;;;;;;4984164;28;20025;-93
2023/03/15 08:52:30;;;;;;;3.13;2.20;;;16.10;99.90;;;;;;4975882;28;20506;-92
2023/03/15 08:54:56;;;;;;;2.43;1.70;;;16.40;99.90;;;;;;4978047;28;20148;-92
2023/03/15 08:57:25;;;;;;;2.95;1.80;;;16.80;99.90;;;;;;4990578;28;20031;-93
2023/03/15 08:59:55;;;;;;;3.10;1.88;;;17.00;99.90;;;;;;4964431;28;20040;-92
2023/03/15 09:02:22;;;;;;;3.80;1.85;;;17.40;99.90;;;;;;4999947;28;20596;-93
2023/03/15 09:04:47;;;;;;;3.20;2.03;;;17.70;99.90;;;;;;4984426;28;20131;-92
2023/03/15 09:07:14;;;;;;;3.53;1.77;;;18.00;99.90;;;;;;4976430;28;20693;-92
2023/03/15 09:09:40;;;;;;;4.35;1.65;;;18.30;99.90;;;;;;5015857;28;20036;-91
2023/03/15 09:12:06;;;;;;;2.72;1.52;;;18.70;99.90;;;;;;4985278;28;20107;-92
2023/03/15 09:14:32;;;;;;;2.27;1.47;;;19.10;99.90;;;;;;4990766;28;20049;-93
2023/03/15 09:16:58;;;;;;;1.40;1.30;;;19.40;99.90;;;;;;4990076;28;20211;-92
2023/03/15 09:19:24;;;;;;;2.35;1.50;;;19.80;99.90;;;;;;4997368;28;20259;-93
2023/03/15 09:21:50;;;;;;;2.20;1.27;;;20.00;99.90;;;;;;4985599;28;20202;-94
2023/03/15 09:24:16;;;;;;;2.65;1.45;;;20.00;99.90;;;;;;5011423;28;20530;-93
2023/03/15 09:26:41;;;;;;;1.63;1.20;;;19.90;99.90;;;;;;4982056;28;20267;-93
2023/03/15 09:29:08;;;;;;;1.83;1.40;;;19.50;99.90;;;;;;4986560;28;20025;-92
2023/03/15 09:31:34;;;;;;;2.28;1.55;;;19.10;99.90;;;;;;4969765;28;20030;-93
2023/03/15 09:34:00;;;;;;;2.67;1.60;;;18.70;99.70;;;;;;4987998;28;20545;-92
2023/03/15 09:36:25;;;;;;;2.27;1.43;;;18.20;99.50;;;;;;5007351;28;20022;-92
2023/03/15 09:38:51;;;;;;;2.53;1.60;;;17.70;99.10;;;;;;4993645;28;20217;-94
2023/03/15 09:41:37;;;;;;;2.25;1.48;;;17.20;98.20;;;;;;4996353;28;20037;-93
2023/03/15 09:44:09;;;;;;;2.40;1.50;;;16.70;95.30;;;;;;5008939;28;20543;-92
2023/03/15 09:47:08;;;;;;;2.70;1.67;;;16.20;97.30;;;;;;4966622;28;20442;-93
2023/03/15 09:49:48;;;;;;;3.20;1.58;;;15.60;94.90;;;;;;5002300;28;20044;-92
2023/03/15 09:52:22;;;;;;;3.10;1.50;;;15.10;96.60;;;;;;4991004;28;20025;-93
2023/03/15 09:54:59;;;;;;;3.78;1.58;;;14.70;98.00;;;;;;4972035;28;20268;-92
2023/03/15 09:57:38;;;;;;;1.87;1.30;;;14.30;97.80;;;;;;4999407;28;20044;-93
2023/03/15 10:00:11;;;;;;;2.85;1.70;;;14.10;98.10;;;;;;5046712;28;20120;-91
2023/03/15 10:02:42;;;;;;;2.85;1.50;;;13.80;99.90;;;;;;4989169;28;20018;-92
2023/03/15 10:05:20;;;;;;;4.55;1.60;;;13.50;99.90;;;;;;5008709;28;20037;-93
2023/03/15 10:07:46;;;;;;;2.38;1.30;;;13.40;99.60;;;;;;5004352;28;20036;-91
2023/03/15 10:10:27;;;;;;;3.10;1.70;;;13.20;99.90;;;;;;5019050;28;20021;-91
2023/03/15 10:13:14;;;;;;;4.03;1.70;;;13.00;99.90;;;;;;5000223;28;20936;-92
2023/03/15 10:16:22;;;;;;;3.10;1.50;;;12.90;99.90;;;;;;5001221;28;20064;-92
2023/03/15 10:18:53;;;;;;;2.15;1.50;;;12.80;99.90;;;;;;4974229;28;20030;-90
2023/03/15 10:21:40;;;;;;;3.33;1.30;;;12.70;99.90;;;;;;4985703;28;20029;-92
2023/03/15 10:24:32;;;;;;;3.20;1.30;;;12.60;99.90;;;;;;4974748;28;20447;-89
2023/03/15 10:27:02;;;;;;;1.95;1.40;;;12.60;99.90;;;;;;4979968;28;20289;-87
2023/03/15 10:29:29;;;;;;;2.63;1.60;;;12.40;99.90;;;;;;4993598;28;20033;-89
2023/03/15 10:31:54;;;;;;;3.90;1.80;;;12.40;99.90;;;;;;4981946;28;20035;-92
2023/03/15 10:34:22;;;;;;;2.60;1.63;;;12.30;99.90;;;;;;4976722;28;20088;-90
2023/03/15 10:36:53;;;;;;;3.03;1.63;;;12.20;99.90;;;;;;4989822;28;20038;-90
2023/03/15 10:39:20;;;;;;;2.28;1.40;;;12.00;99.90;;;;;;4992841;28;20032;-91
2023/03/15 10:41:48;;;;;;;2.50;1.58;;;11.90;99.90;;;;;;4982313;28;20584;-92
2023/03/15 10:44:21;;;;;;;1.98;1.50;;;11.90;99.90;;;;;;5005335;28;20090;-90
2023/03/15 10:47:13;;;;;;;2.60;1.40;;;11.80;99.90;;;;;;4994444;28;20026;-92
2023/03/15 10:49:40;;;;;;;1.98;1.35;;;11.70;99.90;;;;;;4985518;28;20021;-91
2023/03/15 10:52:26;;;;;;;2.13;1.42;;;11.70;99.90;;;;;;4999538;28;20022;-90
2023/03/15 10:54:52;;;;;;;2.75;1.42;;;11.70;99.90;;;;;;4985949;28;20060;-91
2023/03/15 10:57:20;;;;;;;2.47;1.50;;;11.70;99.90;;;;;;5002849;28;20438;-93
2023/03/15 11:00:16;;;;;;;1.88;1.40;;;11.70;99.90;;;;;;4989751;28;20029;-91
2023/03/15 11:02:59;;;;;;;2.25;1.30;;;11.80;99.90;;;;;;4972653;28;20056;-92
2023/03/15 11:05:30;;;;;;;1.65;1.35;;;11.80;99.90;;;;;;5001465;28;20295;-92
2023/03/15 11:07:58;;;;;;;2.17;1.40;;;11.90;99.90;;;;;;4983327;28;20178;-91
2023/03/15 11:10:26;;;;;;;1.50;1.20;;;12.00;99.90;;;;;;5017550;28;20033;-90
2023/03/15 11:13:10;;;;;;;1.67;1.10;;;12.00;99.90;;;;;;4977608;28;20204;-91
2023/03/15 11:15:37;;;;;;;1.52;1.00;;;12.20;99.90;;;;;;4980839;28;20110;-92
2023/03/15 11:18:03;;;;;;;1.75;1.00;;;12.30;99.90;;;;;;4987326;28;20116;-91
2023/03/15 11:20:37;;;;;;;1.63;1.00;;;12.50;99.90;;;;;;4988150;28;20036;-92
2023/03/15 11:23:30;;;;;;;1.57;1.20;;;12.80;99.90;;;;;;4987616;28;20345;-91
2023/03/15 11:25:56;;;;;;;1.52;1.08;;;13.20;99.90;;;;;;4986450;28;20796;-92
2023/03/15 11:28:25;;;;;;;1.27;1.13;;;13.40;99.90;;;;;;5013569;28;20046;-90
2023/03/15 11:30:56;;;;;;;1.40;1.10;;;13.60;99.90;;;;;;4991991;28;20286;-91
2023/03/15 11:33:44;;;;;;;1.73;1.13;;;13.80;99.90;;;;;;4985404;28;20030;-92
2023/03/15 11:36:17;;;;;;;1.48;1.20;;;14.00;99.90;;;;;;5022173;28;20483;-92
2023/03/15 11:38:44;;;;;;;1.80;1.35;;;14.10;99.90;;;;;;5000280;28;20033;-90
2023/03/15 11:41:29;;;;;;;1.48;1.20;;;14.30;99.90;;;;;;4969383;28;20038;-92
2023/03/15 11:44:22;;;;;;;1.20;1.10;;;14.50;99.90;;;;;;4960053;28;20710;-92
2023/03/15 11:46:49;;;;;;;1.67;1.10;;;14.80;99.90;;;;;;5030154;28;20564;-90
2023/03/15 11:49:39;;;;;;;1.25;0.93;;;15.30;99.90;;;;;;4968397;28;20699;-91
2023/03/15 11:52:05;;;;;;;1.75;1.13;;;15.90;99.90;;;;;;5001486;28;20113;-91
2023/03/15 11:54:31;;;;;;;1.58;1.20;;;16.50;99.90;;;;;;4998527;28;20440;-90
2023/03/15 11:57:05;;;;;;;1.27;1.15;;;17.10;99.90;;;;;;4987729;28;20036;-89
2023/03/15 11:59:36;;;;;;;2.40;1.20;;;17.70;99.90;;;;;;4989868;28;20251;-92
2023/03/15 12:02:08;;;;;;;1.60;1.20;;;18.30;99.90;;;;;;4982558;28;20030;-91
2023/03/15 12:04:34;;;;;;;3.42;1.25;;;18.80;99.90;;;;;;4955351;28;20245;-90
2023/03/15 12:07:18;;;;;;;1.33;1.10;;;19.30;99.90;;;;;;4981957;28;20049;-91
2023/03/15 12:09:47;;;;;;;1.27;1.00;;;19.80;99.90;;;;;;4976391;28;20029;-91
2023/03/15 12:12:25;;;;;;;1.60;1.05;;;20.30;99.90;;;;;;4976487;28;20038;-92
2023/03/15 12:15:04;;;;;;;1.15;1.05;;;20.70;99.90;;;;;;4978946;28;20152;-90
2023/03/15 12:17:29;;;;;;;1.70;1.10;;;21.00;99.90;;;;;;4986324;28;20029;-92
2023/03/15 12:20:01;;;;;;;1.17;0.90;;;21.30;99.90;;;;;;4981042;28;20055;-91
2023/03/15 12:22:31;;;;;;;1.15;1.05;;;21.60;99.90;;;;;;4996584;28;20390;-91
2023/03/15 12:25:03;;;;;;;1.80;1.20;;;21.70;99.90;;;;;;4986051;28;20140;-90
2023/03/15 12:27:29;;;;;;;1.63;1.00;;;21.80;99.90;;;;;;4964989;28;20037;-90
2023/03/15 12:30:01;;;;;;;1.10;1.00;;;21.90;99.90;;;;;;5001270;28;20025;-90
2023/03/15 12:32:29;;;;;;;2.58;1.27;;;22.00;99.90;;;;;;4991052;28;20022;-90
2023/03/15 12:35:12;;;;;;;1.65;1.10;;;22.10;99.90;;;;;;4957150;28;20026;-90
2023/03/15 12:37:45;;;;;;;1.10;1.00;;;22.20;99.90;;;;;;4973999;28;20026;-87
2023/03/15 12:40:17;;;;;;;1.67;1.20;;;22.30;99.90;;;;;;4978661;28;20026;-88
2023/03/15 12:42:43;;;;;;;1.10;1.00;;;22.40;99.90;;;;;;4970932;28;20029;-91
2023/03/15 12:45:15;;;;;;;1.52;0.90;;;22.50;99.90;;;;;;4981004;28;20521;-89
2023/03/15 12:47:51;;;;;;;1.33;1.20;;;22.50;99.90;;;;;;5008707;28;20487;-91
2023/03/15 12:50:35;;;;;;;2.35;1.33;;;22.50;99.90;;;;;;4957069;28;20529;-89
2023/03/15 12:53:04;;;;;;;1.65;1.20;;;22.50;97.80;;;;;;4977441;28;20375;-91
2023/03/15 12:55:33;;;;;;;2.08;1.20;;;22.30;99.90;;;;;;4979776;28;20025;-89
2023/03/15 12:58:01;;;;;;;1.92;1.30;;;21.80;98.20;;;;;;4999274;28;20116;-91
2023/03/15 13:00:31;;;;;;;2.07;1.30;;;21.40;99.00;;;;;;4989041;28;20366;-89